createdAt,value
2022-11-29T00:00:58.380Z,97100.50
2022-11-29T00:06:05.943Z,97097.25
2022-11-29T00:11:11.520Z,97093.59
2022-11-29T00:16:17.691Z,97094.72
2022-11-29T00:21:21.302Z,97096.22
2022-11-29T00:26:25.271Z,97099.13
2022-11-29T00:31:33.590Z,97094.91
2022-11-29T00:36:37.452Z,97089.03
2022-11-29T00:41:41.360Z,97085.06
2022-11-29T00:46:46.299Z,97082.09
2022-11-29T00:51:49.833Z,97082.31
2022-11-29T00:56:53.337Z,97082.63
2022-11-29T01:01:58.335Z,97084.09
2022-11-29T01:07:02.259Z,97083.56
2022-11-29T01:12:05.922Z,97094.69
2022-11-29T01:17:10.846Z,97091.16
2022-11-29T01:22:14.395Z,97095.88
2022-11-29T01:27:17.857Z,97101.97
2022-11-29T01:32:22.780Z,97109.38
2022-11-29T01:37:26.442Z,97112.41
2022-11-29T01:42:29.893Z,97113.06
2022-11-29T01:47:35.732Z,97115.28
2022-11-29T01:52:39.494Z,97105.75
2022-11-29T01:57:43.770Z,97107.66
2022-11-29T02:02:53.066Z,97120.56
2022-11-29T02:08:00.077Z,97104.81
2022-11-29T02:13:20.046Z,97105.50
2022-11-29T02:18:38.399Z,97106.00
2022-11-29T02:24:18.456Z,97107.41
2022-11-29T02:30:00.382Z,97103.28
2022-11-29T02:35:21.460Z,97104.78
2022-11-29T02:40:40.860Z,97110.28
2022-11-29T02:45:58.992Z,97101.34
2022-11-29T02:51:10.845Z,97105.81
2022-11-29T02:56:21.789Z,97113.28
2022-11-29T03:01:31.154Z,97107.22
2022-11-29T03:06:44.493Z,97113.91
2022-11-29T03:11:53.224Z,97115.44
2022-11-29T03:17:05.470Z,97113.00
2022-11-29T03:22:16.324Z,97123.13
2022-11-29T03:27:29.075Z,97123.41
2022-11-29T03:32:38.086Z,97121.31
2022-11-29T03:37:55.351Z,97130.63
2022-11-29T03:43:05.264Z,97126.16
2022-11-29T03:48:13.777Z,97123.41
2022-11-29T03:53:24.905Z,97132.44
2022-11-29T03:58:39.265Z,97132.75
2022-11-29T04:04:08.711Z,97140.00
2022-11-29T04:09:31.267Z,97140.94
2022-11-29T04:15:15.694Z,97142.41
2022-11-29T04:20:56.012Z,97139.72
2022-11-29T04:26:36.026Z,97146.72
2022-11-29T04:31:53.923Z,97148.94
2022-11-29T04:37:19.566Z,97149.56
2022-11-29T04:42:50.287Z,97145.97
2022-11-29T04:48:04.166Z,97156.50
2022-11-29T04:53:31.903Z,97155.88
2022-11-29T04:58:41.461Z,97161.75
2022-11-29T05:03:57.085Z,97166.97
2022-11-29T05:09:12.127Z,97175.41
2022-11-29T05:14:29.534Z,97175.28
2022-11-29T05:19:50.724Z,97178.19
2022-11-29T05:25:02.180Z,97178.22
2022-11-29T05:30:13.194Z,97189.03
2022-11-29T05:35:35.557Z,97188.13
2022-11-29T05:40:55.013Z,97192.66
2022-11-29T05:46:09.117Z,97200.31
2022-11-29T05:51:22.536Z,97203.50
2022-11-29T05:56:37.799Z,97203.34
2022-11-29T06:01:55.543Z,97208.34
2022-11-29T06:07:05.411Z,97215.63
2022-11-29T06:12:20.756Z,97216.97
2022-11-29T06:17:56.084Z,97231.44
2022-11-29T06:23:18.574Z,97231.66
2022-11-29T06:28:32.512Z,97231.41
2022-11-29T06:33:49.597Z,97240.44
2022-11-29T06:38:53.501Z,97249.53
2022-11-29T06:43:57.973Z,97251.81
2022-11-29T06:49:10.094Z,97259.44
2022-11-29T06:54:26.334Z,97265.19
2022-11-29T06:59:45.559Z,97265.28
2022-11-29T07:05:04.363Z,97276.03
2022-11-29T07:10:15.075Z,97281.25
2022-11-29T07:15:21.407Z,97277.19
2022-11-29T07:20:39.678Z,97280.34
2022-11-29T07:25:55.632Z,97282.31
2022-11-29T07:31:07.019Z,97287.94
2022-11-29T07:36:17.063Z,97293.47
2022-11-29T07:41:28.872Z,97303.53
2022-11-29T07:46:32.546Z,97302.69
2022-11-29T07:51:37.972Z,97298.69
2022-11-29T07:56:41.935Z,97309.41
2022-11-29T08:01:45.655Z,97308.84
2022-11-29T08:06:50.675Z,97306.50
2022-11-29T08:11:54.358Z,97309.94
2022-11-29T08:16:57.910Z,97313.63
2022-11-29T08:22:03.032Z,97320.25
2022-11-29T08:27:07.030Z,97321.00
2022-11-29T08:32:10.473Z,97323.63
2022-11-29T08:37:15.586Z,97328.91
2022-11-29T08:42:20.645Z,97315.69
2022-11-29T08:47:40.192Z,97321.78
2022-11-29T08:53:04.667Z,97323.78
2022-11-29T08:58:11.031Z,97326.91
2022-11-29T09:03:31.950Z,97337.91
2022-11-29T09:08:36.924Z,97341.16
2022-11-29T09:13:40.776Z,97347.38
2022-11-29T09:18:50.037Z,97351.56
2022-11-29T09:23:59.958Z,97360.38
2022-11-29T09:29:05.958Z,97362.94
2022-11-29T09:34:09.498Z,97363.47
2022-11-29T09:39:14.579Z,97366.00
2022-11-29T09:44:28.408Z,97369.25
2022-11-29T09:49:48.368Z,97370.22
2022-11-29T09:55:01.816Z,97372.13
2022-11-29T10:00:16.684Z,97383.72
2022-11-29T10:05:25.378Z,97388.13
2022-11-29T10:10:40.850Z,97382.44
2022-11-29T10:15:46.828Z,97379.50
2022-11-29T10:20:53.234Z,97381.38
2022-11-29T10:25:59.660Z,97390.66
2022-11-29T10:31:15.324Z,97380.72
2022-11-29T10:36:26.515Z,97385.81
2022-11-29T10:41:31.474Z,97379.81
2022-11-29T10:46:38.187Z,97388.88
2022-11-29T10:51:41.632Z,97391.91
2022-11-29T10:56:48.322Z,97390.97
2022-11-29T11:01:53.136Z,97394.88
2022-11-29T11:07:01.071Z,97393.78
2022-11-29T11:12:09.306Z,97390.50
2022-11-29T11:17:22.338Z,97397.78
2022-11-29T11:22:28.415Z,97409.47
2022-11-29T11:27:41.042Z,97410.16
2022-11-29T11:33:19.554Z,97408.88
2022-11-29T11:38:23.143Z,97419.09
2022-11-29T11:43:28.231Z,97414.03
2022-11-29T11:48:32.147Z,97423.66
2022-11-29T11:53:38.217Z,97425.53
2022-11-29T11:58:52.019Z,97425.31
2022-11-29T12:04:04.490Z,97421.94
2022-11-29T12:09:20.501Z,97426.16
2022-11-29T12:14:35.449Z,97421.84
2022-11-29T12:19:47.622Z,97430.38
2022-11-29T12:24:58.743Z,97433.75
2022-11-29T12:30:07.487Z,97428.91
2022-11-29T12:35:32.545Z,97429.44
2022-11-29T12:40:48.311Z,97443.84
2022-11-29T12:46:01.402Z,97449.88
2022-11-29T12:51:11.937Z,97442.09
2022-11-29T12:56:22.029Z,97440.91
2022-11-29T13:01:38.346Z,97451.75
2022-11-29T13:06:50.720Z,97451.25
2022-11-29T13:11:59.708Z,97468.31
2022-11-29T13:17:07.099Z,97460.31
2022-11-29T13:22:19.744Z,97457.34
2022-11-29T13:27:28.610Z,97465.66
2022-11-29T13:32:41.291Z,97470.84
2022-11-29T13:37:56.928Z,97466.72
2022-11-29T13:43:16.621Z,97466.63
2022-11-29T13:48:48.082Z,97471.97
2022-11-29T13:53:56.322Z,97479.38
2022-11-29T13:59:10.890Z,97480.97
2022-11-29T14:04:29.166Z,97478.59
2022-11-29T14:09:46.819Z,97484.22
2022-11-29T14:14:55.633Z,97482.31
2022-11-29T14:20:36.017Z,97483.69
2022-11-29T14:25:51.720Z,97489.16
2022-11-29T14:31:01.756Z,97489.56
2022-11-29T14:36:39.296Z,97492.19
2022-11-29T14:41:56.015Z,97492.50
2022-11-29T14:47:08.229Z,97503.59
2022-11-29T14:52:21.701Z,97497.00
2022-11-29T14:58:06.482Z,97509.81
2022-11-29T15:03:15.294Z,97516.66
2022-11-29T15:08:27.750Z,97518.91
2022-11-29T15:13:35.668Z,97520.94
2022-11-29T15:19:06.646Z,97524.53
2022-11-29T15:24:15.474Z,97526.53
2022-11-29T15:29:21.675Z,97531.28
2022-11-29T15:34:35.423Z,97534.56
2022-11-29T15:39:40.124Z,97543.72
2022-11-29T15:44:50.181Z,97545.16
2022-11-29T15:50:00.603Z,97549.19
2022-11-29T15:55:07.968Z,97556.41
2022-11-29T16:00:21.703Z,97556.63
2022-11-29T16:05:31.283Z,97548.19
2022-11-29T16:10:38.355Z,97552.75
2022-11-29T16:15:51.947Z,97568.25
2022-11-29T16:21:02.199Z,97564.81
2022-11-29T16:26:14.927Z,97573.69
2022-11-29T16:31:22.049Z,97575.34
2022-11-29T16:36:30.614Z,97580.53
2022-11-29T16:41:37.004Z,97584.66
2022-11-29T16:46:44.345Z,97595.25
2022-11-29T16:52:00.032Z,97594.75
2022-11-29T16:57:07.839Z,97601.78
2022-11-29T17:02:18.648Z,97597.63
2022-11-29T17:07:35.254Z,97599.28
2022-11-29T17:12:48.176Z,97595.63
2022-11-29T17:17:53.491Z,97605.38
2022-11-29T17:22:59.003Z,97609.63
2022-11-29T17:28:02.913Z,97606.75
2022-11-29T17:33:09.098Z,97610.13
2022-11-29T17:38:17.700Z,97615.41
2022-11-29T17:43:27.075Z,97615.88
2022-11-29T17:48:33.653Z,97616.06
2022-11-29T17:53:40.666Z,97623.97
2022-11-29T17:58:45.946Z,97624.38
2022-11-29T18:03:55.498Z,97622.03
2022-11-29T18:09:02.651Z,97617.72
2022-11-29T18:14:15.482Z,97616.22
2022-11-29T18:19:21.875Z,97626.84
2022-11-29T18:24:30.896Z,97620.81
2022-11-29T18:29:43.159Z,97618.31
2022-11-29T18:34:59.156Z,97623.66
2022-11-29T18:40:16.260Z,97638.97
2022-11-29T18:45:30.145Z,97635.97
2022-11-29T18:50:48.461Z,97635.00
2022-11-29T18:56:35.582Z,97633.97
2022-11-29T19:01:55.130Z,97649.97
2022-11-29T19:07:04.759Z,97658.69
2022-11-29T19:12:21.872Z,97659.53
2022-11-29T19:17:37.604Z,97657.78
2022-11-29T19:22:58.972Z,97659.25
2022-11-29T19:28:14.008Z,97661.25
2022-11-29T19:33:30.979Z,97650.06
2022-11-29T19:38:53.369Z,97656.41
2022-11-29T19:44:05.205Z,97667.34
2022-11-29T19:49:31.777Z,97668.13
2022-11-29T19:55:23.993Z,97679.09
2022-11-29T20:00:46.332Z,97676.00
2022-11-29T20:11:31.141Z,97688.66
2022-11-29T20:16:55.044Z,97689.63
2022-11-29T20:22:12.377Z,97684.91
2022-11-29T20:27:20.091Z,97692.03
2022-11-29T20:32:52.983Z,97694.97
2022-11-29T20:38:36.981Z,97696.41
2022-11-29T20:43:59.485Z,97698.81
2022-11-29T20:49:23.515Z,97704.38
2022-11-29T20:54:34.697Z,97699.78
2022-11-29T20:59:40.969Z,97705.88
2022-11-29T21:04:57.799Z,97700.16
2022-11-29T21:10:06.288Z,97700.03
2022-11-29T21:15:12.051Z,97696.75
2022-11-29T21:20:27.654Z,97699.31
2022-11-29T21:25:54.753Z,97706.38
2022-11-29T21:31:03.909Z,97711.91
2022-11-29T21:36:12.142Z,97720.16
2022-11-29T21:41:16.314Z,97715.84
2022-11-29T21:46:20.959Z,97715.84
2022-11-29T21:51:26.446Z,97719.03
2022-11-29T21:56:30.099Z,97724.69
2022-11-29T22:01:38.333Z,97727.13
2022-11-29T22:06:44.025Z,97716.13
2022-11-29T22:11:48.026Z,97727.72
2022-11-29T22:16:53.639Z,97724.00
2022-11-29T22:22:00.223Z,97725.34
2022-11-29T22:27:04.374Z,97721.38
2022-11-29T22:32:11.328Z,97726.94
2022-11-29T22:37:21.967Z,97733.91
2022-11-29T22:42:26.624Z,97728.53
2022-11-29T22:47:32.608Z,97724.50
2022-11-29T22:52:37.626Z,97735.97
2022-11-29T22:57:44.073Z,97730.81
2022-11-29T23:02:47.817Z,97735.03
2022-11-29T23:07:58.524Z,97732.84
2022-11-29T23:13:04.860Z,97738.13
2022-11-29T23:18:10.756Z,97735.13
2022-11-29T23:23:20.905Z,97734.75
2022-11-29T23:28:25.397Z,97738.59
2022-11-29T23:33:30.386Z,97744.88
2022-11-29T23:38:36.181Z,97736.34
2022-11-29T23:43:42.487Z,97725.81
2022-11-29T23:48:46.804Z,97724.97
2022-11-29T23:53:54.612Z,97721.88
2022-11-29T23:58:58.585Z,97727.53
